sensor_id;sensor_type;location;lat;lon;timestamp;P1;durP1;ratioP1;P2;durP2;ratioP2
2416;SDS011;1219;48.736;9.330;2023-11-21T00:01:18;4.43;;;2.60;;
2416;SDS011;1219;48.736;9.330;2023-11-21T00:03:44;3.43;;;2.97;;
2416;SDS011;1219;48.736;9.330;2023-11-21T00:06:11;2.53;;;2.33;;
2416;SDS011;1219;48.736;9.330;2023-11-21T00:08:37;3.27;;;2.97;;
2416;SDS011;1219;48.736;9.330;2023-11-21T00:11:03;3.10;;;2.90;;
2416;SDS011;1219;48.736;9.330;2023-11-21T00:13:30;2.73;;;2.37;;
2416;SDS011;1219;48.736;9.330;2023-11-21T00:15:56;2.50;;;2.30;;
2416;SDS011;1219;48.736;9.330;2023-11-21T00:18:22;2.80;;;2.40;;
2416;SDS011;1219;48.736;9.330;2023-11-21T00:20:48;2.37;;;2.17;;
2416;SDS011;1219;48.736;9.330;2023-11-21T00:23:14;2.43;;;2.23;;
2416;SDS011;1219;48.736;9.330;2023-11-21T00:25:40;2.67;;;2.47;;
2416;SDS011;1219;48.736;9.330;2023-11-21T00:28:06;2.73;;;2.53;;
2416;SDS011;1219;48.736;9.330;2023-11-21T00:30:32;3.23;;;2.80;;
2416;SDS011;1219;48.736;9.330;2023-11-21T00:32:58;3.67;;;3.00;;
2416;SDS011;1219;48.736;9.330;2023-11-21T00:35:24;6.93;;;4.10;;
2416;SDS011;1219;48.736;9.330;2023-11-21T00:37:50;3.67;;;3.33;;
2416;SDS011;1219;48.736;9.330;2023-11-21T00:40:17;4.07;;;2.93;;
2416;SDS011;1219;48.736;9.330;2023-11-21T00:42:47;3.60;;;3.13;;
2416;SDS011;1219;48.736;9.330;2023-11-21T00:45:13;3.17;;;2.40;;
2416;SDS011;1219;48.736;9.330;2023-11-21T00:47:39;4.10;;;2.77;;
2416;SDS011;1219;48.736;9.330;2023-11-21T00:50:05;3.00;;;2.70;;
2416;SDS011;1219;48.736;9.330;2023-11-21T00:52:32;4.07;;;2.73;;
2416;SDS011;1219;48.736;9.330;2023-11-21T00:54:58;3.33;;;3.10;;
2416;SDS011;1219;48.736;9.330;2023-11-21T00:57:25;3.37;;;3.07;;
2416;SDS011;1219;48.736;9.330;2023-11-21T00:59:51;9.10;;;3.27;;
2416;SDS011;1219;48.736;9.330;2023-11-21T01:02:17;3.60;;;2.90;;
2416;SDS011;1219;48.736;9.330;2023-11-21T01:04:43;3.43;;;2.97;;
2416;SDS011;1219;48.736;9.330;2023-11-21T01:07:09;4.10;;;2.60;;
2416;SDS011;1219;48.736;9.330;2023-11-21T01:09:35;2.80;;;2.40;;
2416;SDS011;1219;48.736;9.330;2023-11-21T01:12:01;1.90;;;1.70;;
2416;SDS011;1219;48.736;9.330;2023-11-21T01:14:27;2.40;;;2.20;;
2416;SDS011;1219;48.736;9.330;2023-11-21T01:16:53;2.97;;;2.10;;
2416;SDS011;1219;48.736;9.330;2023-11-21T01:19:19;3.00;;;1.93;;
2416;SDS011;1219;48.736;9.330;2023-11-21T01:21:45;1.90;;;1.80;;
2416;SDS011;1219;48.736;9.330;2023-11-21T01:24:12;2.20;;;2.00;;
2416;SDS011;1219;48.736;9.330;2023-11-21T01:26:38;2.23;;;2.03;;
2416;SDS011;1219;48.736;9.330;2023-11-21T01:29:04;2.33;;;2.13;;
2416;SDS011;1219;48.736;9.330;2023-11-21T01:31:30;2.10;;;2.00;;
2416;SDS011;1219;48.736;9.330;2023-11-21T01:33:56;2.33;;;2.13;;
2416;SDS011;1219;48.736;9.330;2023-11-21T01:36:23;4.13;;;1.83;;
2416;SDS011;1219;48.736;9.330;2023-11-21T01:38:56;2.17;;;1.97;;
2416;SDS011;1219;48.736;9.330;2023-11-21T01:41:24;2.23;;;1.80;;
2416;SDS011;1219;48.736;9.330;2023-11-21T01:43:51;3.43;;;1.60;;
2416;SDS011;1219;48.736;9.330;2023-11-21T01:46:18;1.97;;;1.87;;
2416;SDS011;1219;48.736;9.330;2023-11-21T01:48:45;2.07;;;1.97;;
2416;SDS011;1219;48.736;9.330;2023-11-21T01:51:11;2.37;;;1.87;;
2416;SDS011;1219;48.736;9.330;2023-11-21T01:53:37;1.70;;;1.60;;
2416;SDS011;1219;48.736;9.330;2023-11-21T01:56:03;2.40;;;2.23;;
2416;SDS011;1219;48.736;9.330;2023-11-21T01:58:30;3.43;;;2.20;;
2416;SDS011;1219;48.736;9.330;2023-11-21T02:00:57;1.80;;;1.60;;
2416;SDS011;1219;48.736;9.330;2023-11-21T02:03:23;2.07;;;1.87;;
2416;SDS011;1219;48.736;9.330;2023-11-21T02:05:51;2.13;;;1.73;;
2416;SDS011;1219;48.736;9.330;2023-11-21T02:08:17;2.10;;;1.60;;
2416;SDS011;1219;48.736;9.330;2023-11-21T02:10:44;1.70;;;1.60;;
2416;SDS011;1219;48.736;9.330;2023-11-21T02:13:10;2.30;;;2.10;;
2416;SDS011;1219;48.736;9.330;2023-11-21T02:15:36;1.83;;;1.73;;
2416;SDS011;1219;48.736;9.330;2023-11-21T02:18:03;1.60;;;1.50;;
2416;SDS011;1219;48.736;9.330;2023-11-21T02:20:31;1.67;;;1.57;;
2416;SDS011;1219;48.736;9.330;2023-11-21T02:22:59;1.93;;;1.83;;
2416;SDS011;1219;48.736;9.330;2023-11-21T02:25:27;2.20;;;1.50;;
2416;SDS011;1219;48.736;9.330;2023-11-21T02:27:54;1.60;;;1.50;;
2416;SDS011;1219;48.736;9.330;2023-11-21T02:30:21;1.53;;;1.43;;
2416;SDS011;1219;48.736;9.330;2023-11-21T02:32:47;2.30;;;1.63;;
2416;SDS011;1219;48.736;9.330;2023-11-21T02:35:13;1.63;;;1.53;;
2416;SDS011;1219;48.736;9.330;2023-11-21T02:37:40;3.20;;;1.57;;
2416;SDS011;1219;48.736;9.330;2023-11-21T02:40:08;1.60;;;1.50;;
2416;SDS011;1219;48.736;9.330;2023-11-21T02:42:34;1.53;;;1.40;;
2416;SDS011;1219;48.736;9.330;2023-11-21T02:45:00;4.57;;;1.70;;
2416;SDS011;1219;48.736;9.330;2023-11-21T02:47:26;1.80;;;1.70;;
2416;SDS011;1219;48.736;9.330;2023-11-21T02:49:53;1.60;;;1.50;;
2416;SDS011;1219;48.736;9.330;2023-11-21T02:52:19;2.00;;;1.63;;
2416;SDS011;1219;48.736;9.330;2023-11-21T02:54:45;1.50;;;1.40;;
2416;SDS011;1219;48.736;9.330;2023-11-21T02:57:11;3.87;;;1.60;;
2416;SDS011;1219;48.736;9.330;2023-11-21T02:59:38;1.63;;;1.53;;
2416;SDS011;1219;48.736;9.330;2023-11-21T03:02:04;3.73;;;1.43;;
2416;SDS011;1219;48.736;9.330;2023-11-21T03:04:33;1.50;;;1.40;;
2416;SDS011;1219;48.736;9.330;2023-11-21T03:07:00;1.50;;;1.40;;
2416;SDS011;1219;48.736;9.330;2023-11-21T03:09:26;3.53;;;1.43;;
2416;SDS011;1219;48.736;9.330;2023-11-21T03:11:52;1.77;;;1.40;;
2416;SDS011;1219;48.736;9.330;2023-11-21T03:14:18;1.40;;;1.30;;
2416;SDS011;1219;48.736;9.330;2023-11-21T03:16:45;1.63;;;1.53;;
2416;SDS011;1219;48.736;9.330;2023-11-21T03:19:11;1.53;;;1.43;;
2416;SDS011;1219;48.736;9.330;2023-11-21T03:21:37;1.40;;;1.30;;
2416;SDS011;1219;48.736;9.330;2023-11-21T03:24:03;3.33;;;2.10;;
2416;SDS011;1219;48.736;9.330;2023-11-21T03:26:29;1.30;;;1.20;;
2416;SDS011;1219;48.736;9.330;2023-11-21T03:28:55;1.80;;;1.70;;
2416;SDS011;1219;48.736;9.330;2023-11-21T03:31:21;2.17;;;1.60;;
2416;SDS011;1219;48.736;9.330;2023-11-21T03:33:47;2.10;;;1.50;;
2416;SDS011;1219;48.736;9.330;2023-11-21T03:36:13;1.30;;;1.20;;
2416;SDS011;1219;48.736;9.330;2023-11-21T03:38:43;2.07;;;1.50;;
2416;SDS011;1219;48.736;9.330;2023-11-21T03:41:09;1.37;;;1.20;;
2416;SDS011;1219;48.736;9.330;2023-11-21T03:43:35;1.40;;;1.30;;
2416;SDS011;1219;48.736;9.330;2023-11-21T03:46:01;2.40;;;1.30;;
2416;SDS011;1219;48.736;9.330;2023-11-21T03:48:27;1.50;;;1.37;;
2416;SDS011;1219;48.736;9.330;2023-11-21T03:50:53;1.60;;;1.50;;
2416;SDS011;1219;48.736;9.330;2023-11-21T03:53:19;1.40;;;1.30;;
2416;SDS011;1219;48.736;9.330;2023-11-21T03:55:45;2.80;;;1.60;;
2416;SDS011;1219;48.736;9.330;2023-11-21T03:58:11;1.50;;;1.40;;
2416;SDS011;1219;48.736;9.330;2023-11-21T04:00:37;1.60;;;1.50;;
2416;SDS011;1219;48.736;9.330;2023-11-21T04:03:03;1.40;;;1.30;;
2416;SDS011;1219;48.736;9.330;2023-11-21T04:05:29;1.40;;;1.10;;
2416;SDS011;1219;48.736;9.330;2023-11-21T04:07:56;1.47;;;1.37;;
2416;SDS011;1219;48.736;9.330;2023-11-21T04:10:22;1.30;;;1.27;;
2416;SDS011;1219;48.736;9.330;2023-11-21T04:12:48;1.70;;;1.60;;
2416;SDS011;1219;48.736;9.330;2023-11-21T04:15:14;1.53;;;1.40;;
2416;SDS011;1219;48.736;9.330;2023-11-21T04:17:40;4.37;;;1.20;;
2416;SDS011;1219;48.736;9.330;2023-11-21T04:20:07;1.80;;;1.70;;
2416;SDS011;1219;48.736;9.330;2023-11-21T04:22:40;4.20;;;1.50;;
2416;SDS011;1219;48.736;9.330;2023-11-21T04:25:09;1.40;;;1.30;;
2416;SDS011;1219;48.736;9.330;2023-11-21T04:27:36;1.60;;;1.50;;
2416;SDS011;1219;48.736;9.330;2023-11-21T04:30:02;2.07;;;1.30;;
2416;SDS011;1219;48.736;9.330;2023-11-21T04:32:28;1.47;;;1.37;;
2416;SDS011;1219;48.736;9.330;2023-11-21T04:34:54;1.50;;;1.40;;
2416;SDS011;1219;48.736;9.330;2023-11-21T04:37:20;1.30;;;1.20;;
2416;SDS011;1219;48.736;9.330;2023-11-21T04:39:46;3.00;;;1.57;;
2416;SDS011;1219;48.736;9.330;2023-11-21T04:42:12;1.40;;;1.30;;
2416;SDS011;1219;48.736;9.330;2023-11-21T04:44:38;1.57;;;1.47;;
2416;SDS011;1219;48.736;9.330;2023-11-21T04:47:06;1.83;;;1.27;;
2416;SDS011;1219;48.736;9.330;2023-11-21T04:49:32;4.20;;;1.70;;
2416;SDS011;1219;48.736;9.330;2023-11-21T04:51:58;1.40;;;1.30;;
2416;SDS011;1219;48.736;9.330;2023-11-21T04:54:24;1.23;;;1.13;;
2416;SDS011;1219;48.736;9.330;2023-11-21T04:56:50;1.37;;;1.27;;
2416;SDS011;1219;48.736;9.330;2023-11-21T04:59:16;1.30;;;1.27;;
2416;SDS011;1219;48.736;9.330;2023-11-21T05:01:42;5.00;;;1.47;;
2416;SDS011;1219;48.736;9.330;2023-11-21T05:04:08;1.40;;;1.30;;
2416;SDS011;1219;48.736;9.330;2023-11-21T05:06:34;1.27;;;1.10;;
2416;SDS011;1219;48.736;9.330;2023-11-21T05:09:00;1.13;;;1.10;;
2416;SDS011;1219;48.736;9.330;2023-11-21T05:11:26;1.30;;;1.20;;
2416;SDS011;1219;48.736;9.330;2023-11-21T05:13:52;1.00;;;1.00;;
2416;SDS011;1219;48.736;9.330;2023-11-21T05:16:20;1.20;;;1.10;;
2416;SDS011;1219;48.736;9.330;2023-11-21T05:18:47;1.50;;;1.40;;
2416;SDS011;1219;48.736;9.330;2023-11-21T05:21:13;1.13;;;1.10;;
2416;SDS011;1219;48.736;9.330;2023-11-21T05:23:40;1.10;;;1.10;;
2416;SDS011;1219;48.736;9.330;2023-11-21T05:26:05;1.20;;;1.20;;
2416;SDS011;1219;48.736;9.330;2023-11-21T05:28:32;1.73;;;1.63;;
2416;SDS011;1219;48.736;9.330;2023-11-21T05:30:58;1.93;;;1.33;;
2416;SDS011;1219;48.736;9.330;2023-11-21T05:33:24;1.40;;;1.30;;
2416;SDS011;1219;48.736;9.330;2023-11-21T05:35:50;1.30;;;1.20;;
2416;SDS011;1219;48.736;9.330;2023-11-21T05:38:16;1.23;;;1.13;;
2416;SDS011;1219;48.736;9.330;2023-11-21T05:40:42;1.40;;;1.30;;
2416;SDS011;1219;48.736;9.330;2023-11-21T05:43:08;1.27;;;1.20;;
2416;SDS011;1219;48.736;9.330;2023-11-21T05:45:34;1.70;;;1.60;;
2416;SDS011;1219;48.736;9.330;2023-11-21T05:48:00;1.40;;;1.30;;
2416;SDS011;1219;48.736;9.330;2023-11-21T05:50:28;1.30;;;1.20;;
2416;SDS011;1219;48.736;9.330;2023-11-21T05:52:53;1.13;;;1.13;;
2416;SDS011;1219;48.736;9.330;2023-11-21T05:55:22;1.10;;;1.10;;
2416;SDS011;1219;48.736;9.330;2023-11-21T05:57:50;1.57;;;1.40;;
2416;SDS011;1219;48.736;9.330;2023-11-21T06:00:16;1.30;;;1.20;;
2416;SDS011;1219;48.736;9.330;2023-11-21T06:02:47;1.80;;;1.10;;
2416;SDS011;1219;48.736;9.330;2023-11-21T06:05:15;1.40;;;1.30;;
2416;SDS011;1219;48.736;9.330;2023-11-21T06:07:42;1.23;;;1.17;;
2416;SDS011;1219;48.736;9.330;2023-11-21T06:10:08;1.70;;;1.60;;
2416;SDS011;1219;48.736;9.330;2023-11-21T06:12:36;1.40;;;1.30;;
2416;SDS011;1219;48.736;9.330;2023-11-21T06:15:05;1.43;;;1.33;;
2416;SDS011;1219;48.736;9.330;2023-11-21T06:17:33;1.33;;;1.23;;
2416;SDS011;1219;48.736;9.330;2023-11-21T06:20:01;1.60;;;1.50;;
2416;SDS011;1219;48.736;9.330;2023-11-21T06:22:29;1.60;;;1.50;;
2416;SDS011;1219;48.736;9.330;2023-11-21T06:24:55;1.40;;;1.30;;
2416;SDS011;1219;48.736;9.330;2023-11-21T06:27:21;1.53;;;1.43;;
2416;SDS011;1219;48.736;9.330;2023-11-21T06:29:49;1.70;;;1.60;;
2416;SDS011;1219;48.736;9.330;2023-11-21T06:32:15;1.20;;;1.20;;
2416;SDS011;1219;48.736;9.330;2023-11-21T06:34:41;1.60;;;1.50;;
2416;SDS011;1219;48.736;9.330;2023-11-21T06:37:08;1.30;;;1.20;;
2416;SDS011;1219;48.736;9.330;2023-11-21T06:39:34;1.93;;;1.83;;
2416;SDS011;1219;48.736;9.330;2023-11-21T06:42:00;1.47;;;1.40;;
2416;SDS011;1219;48.736;9.330;2023-11-21T06:44:26;1.47;;;1.37;;
2416;SDS011;1219;48.736;9.330;2023-11-21T06:46:52;1.47;;;1.37;;
2416;SDS011;1219;48.736;9.330;2023-11-21T06:49:19;2.20;;;1.40;;
2416;SDS011;1219;48.736;9.330;2023-11-21T06:51:45;1.30;;;1.20;;
2416;SDS011;1219;48.736;9.330;2023-11-21T06:54:11;1.10;;;1.10;;
2416;SDS011;1219;48.736;9.330;2023-11-21T06:56:38;1.30;;;1.20;;
2416;SDS011;1219;48.736;9.330;2023-11-21T06:59:04;1.40;;;1.30;;
2416;SDS011;1219;48.736;9.330;2023-11-21T07:01:31;1.27;;;1.20;;
2416;SDS011;1219;48.736;9.330;2023-11-21T07:04:03;1.43;;;1.23;;
2416;SDS011;1219;48.736;9.330;2023-11-21T07:06:30;1.23;;;1.20;;
2416;SDS011;1219;48.736;9.330;2023-11-21T07:08:56;1.30;;;1.30;;
2416;SDS011;1219;48.736;9.330;2023-11-21T07:11:22;1.40;;;1.30;;
2416;SDS011;1219;48.736;9.330;2023-11-21T07:13:48;1.20;;;1.20;;
2416;SDS011;1219;48.736;9.330;2023-11-21T07:16:14;1.33;;;1.27;;
2416;SDS011;1219;48.736;9.330;2023-11-21T07:18:41;1.40;;;1.30;;
2416;SDS011;1219;48.736;9.330;2023-11-21T07:21:08;2.00;;;1.70;;
2416;SDS011;1219;48.736;9.330;2023-11-21T07:23:36;1.67;;;1.57;;
2416;SDS011;1219;48.736;9.330;2023-11-21T07:26:02;4.03;;;1.83;;
2416;SDS011;1219;48.736;9.330;2023-11-21T07:28:33;1.90;;;1.80;;
2416;SDS011;1219;48.736;9.330;2023-11-21T07:30:59;2.10;;;1.90;;
2416;SDS011;1219;48.736;9.330;2023-11-21T07:33:25;1.80;;;1.70;;
2416;SDS011;1219;48.736;9.330;2023-11-21T07:35:51;2.03;;;1.60;;
2416;SDS011;1219;48.736;9.330;2023-11-21T07:38:17;1.63;;;1.53;;
2416;SDS011;1219;48.736;9.330;2023-11-21T07:40:43;1.40;;;1.30;;
2416;SDS011;1219;48.736;9.330;2023-11-21T07:43:09;1.70;;;1.57;;
2416;SDS011;1219;48.736;9.330;2023-11-21T07:45:35;1.40;;;1.30;;
2416;SDS011;1219;48.736;9.330;2023-11-21T07:48:01;1.53;;;1.43;;
2416;SDS011;1219;48.736;9.330;2023-11-21T07:50:28;1.50;;;1.40;;
2416;SDS011;1219;48.736;9.330;2023-11-21T07:52:54;1.40;;;1.30;;
2416;SDS011;1219;48.736;9.330;2023-11-21T07:55:20;1.53;;;1.43;;
2416;SDS011;1219;48.736;9.330;2023-11-21T07:57:46;1.70;;;1.60;;
2416;SDS011;1219;48.736;9.330;2023-11-21T08:00:12;1.57;;;1.47;;
2416;SDS011;1219;48.736;9.330;2023-11-21T08:02:40;1.50;;;1.40;;
2416;SDS011;1219;48.736;9.330;2023-11-21T08:05:07;1.50;;;1.40;;
2416;SDS011;1219;48.736;9.330;2023-11-21T08:07:33;1.50;;;1.37;;
2416;SDS011;1219;48.736;9.330;2023-11-21T08:09:59;1.60;;;1.50;;
2416;SDS011;1219;48.736;9.330;2023-11-21T08:12:25;1.50;;;1.40;;
2416;SDS011;1219;48.736;9.330;2023-11-21T08:14:52;1.57;;;1.47;;
2416;SDS011;1219;48.736;9.330;2023-11-21T08:17:18;1.50;;;1.40;;
2416;SDS011;1219;48.736;9.330;2023-11-21T08:19:45;1.43;;;1.33;;
2416;SDS011;1219;48.736;9.330;2023-11-21T08:22:14;1.73;;;1.63;;
2416;SDS011;1219;48.736;9.330;2023-11-21T08:24:41;1.50;;;1.40;;
2416;SDS011;1219;48.736;9.330;2023-11-21T08:27:07;2.07;;;1.90;;
2416;SDS011;1219;48.736;9.330;2023-11-21T08:29:33;1.80;;;1.70;;
2416;SDS011;1219;48.736;9.330;2023-11-21T08:31:59;1.87;;;1.77;;
2416;SDS011;1219;48.736;9.330;2023-11-21T08:34:25;1.90;;;1.70;;
2416;SDS011;1219;48.736;9.330;2023-11-21T08:36:51;1.60;;;1.50;;
2416;SDS011;1219;48.736;9.330;2023-11-21T08:41:50;1.70;;;1.60;;
2416;SDS011;1219;48.736;9.330;2023-11-21T08:44:16;1.70;;;1.60;;
2416;SDS011;1219;48.736;9.330;2023-11-21T08:46:45;1.50;;;1.40;;
2416;SDS011;1219;48.736;9.330;2023-11-21T08:49:11;1.50;;;1.40;;
2416;SDS011;1219;48.736;9.330;2023-11-21T08:51:39;1.60;;;1.50;;
2416;SDS011;1219;48.736;9.330;2023-11-21T08:54:05;1.77;;;1.67;;
2416;SDS011;1219;48.736;9.330;2023-11-21T08:56:33;1.73;;;1.60;;
2416;SDS011;1219;48.736;9.330;2023-11-21T08:59:00;1.80;;;1.70;;
2416;SDS011;1219;48.736;9.330;2023-11-21T09:01:28;1.67;;;1.57;;
2416;SDS011;1219;48.736;9.330;2023-11-21T09:03:56;1.70;;;1.60;;
2416;SDS011;1219;48.736;9.330;2023-11-21T09:06:22;1.70;;;1.60;;
2416;SDS011;1219;48.736;9.330;2023-11-21T09:08:48;1.80;;;1.70;;
2416;SDS011;1219;48.736;9.330;2023-11-21T09:11:14;1.80;;;1.70;;
2416;SDS011;1219;48.736;9.330;2023-11-21T09:13:40;1.80;;;1.70;;
2416;SDS011;1219;48.736;9.330;2023-11-21T09:16:06;1.70;;;1.60;;
2416;SDS011;1219;48.736;9.330;2023-11-21T09:18:32;1.77;;;1.67;;
2416;SDS011;1219;48.736;9.330;2023-11-21T09:20:58;1.73;;;1.63;;
2416;SDS011;1219;48.736;9.330;2023-11-21T09:23:24;3.07;;;1.60;;
2416;SDS011;1219;48.736;9.330;2023-11-21T09:25:50;1.50;;;1.40;;
2416;SDS011;1219;48.736;9.330;2023-11-21T09:28:17;1.60;;;1.50;;
2416;SDS011;1219;48.736;9.330;2023-11-21T09:30:43;1.50;;;1.40;;
2416;SDS011;1219;48.736;9.330;2023-11-21T09:33:09;2.17;;;1.70;;
2416;SDS011;1219;48.736;9.330;2023-11-21T09:35:37;1.90;;;1.80;;
2416;SDS011;1219;48.736;9.330;2023-11-21T09:38:04;1.80;;;1.70;;
2416;SDS011;1219;48.736;9.330;2023-11-21T09:40:35;2.07;;;1.97;;
2416;SDS011;1219;48.736;9.330;2023-11-21T09:43:02;1.80;;;1.70;;
2416;SDS011;1219;48.736;9.330;2023-11-21T09:45:34;1.90;;;1.77;;
2416;SDS011;1219;48.736;9.330;2023-11-21T09:48:00;1.80;;;1.70;;
2416;SDS011;1219;48.736;9.330;2023-11-21T09:50:27;1.80;;;1.70;;
2416;SDS011;1219;48.736;9.330;2023-11-21T09:55:44;2.20;;;2.10;;
2416;SDS011;1219;48.736;9.330;2023-11-21T09:58:11;1.50;;;1.40;;
2416;SDS011;1219;48.736;9.330;2023-11-21T10:00:41;1.70;;;1.60;;
2416;SDS011;1219;48.736;9.330;2023-11-21T10:03:07;1.60;;;1.50;;
2416;SDS011;1219;48.736;9.330;2023-11-21T10:05:33;2.07;;;1.60;;
2416;SDS011;1219;48.736;9.330;2023-11-21T10:08:00;1.90;;;1.80;;
2416;SDS011;1219;48.736;9.330;2023-11-21T10:10:26;1.67;;;1.57;;
2416;SDS011;1219;48.736;9.330;2023-11-21T10:12:55;2.00;;;1.90;;
2416;SDS011;1219;48.736;9.330;2023-11-21T10:15:22;1.90;;;1.80;;
2416;SDS011;1219;48.736;9.330;2023-11-21T10:17:50;1.70;;;1.60;;
2416;SDS011;1219;48.736;9.330;2023-11-21T10:20:18;1.83;;;1.73;;
2416;SDS011;1219;48.736;9.330;2023-11-21T10:22:44;2.33;;;2.23;;
2416;SDS011;1219;48.736;9.330;2023-11-21T10:25:11;1.77;;;1.67;;
2416;SDS011;1219;48.736;9.330;2023-11-21T10:27:39;1.90;;;1.80;;
2416;SDS011;1219;48.736;9.330;2023-11-21T10:30:06;1.60;;;1.50;;
2416;SDS011;1219;48.736;9.330;2023-11-21T10:32:33;2.10;;;2.00;;
2416;SDS011;1219;48.736;9.330;2023-11-21T10:34:59;1.67;;;1.57;;
2416;SDS011;1219;48.736;9.330;2023-11-21T10:37:27;1.63;;;1.53;;
2416;SDS011;1219;48.736;9.330;2023-11-21T10:39:57;1.60;;;1.50;;
2416;SDS011;1219;48.736;9.330;2023-11-21T10:42:23;1.60;;;1.50;;
2416;SDS011;1219;48.736;9.330;2023-11-21T10:44:49;1.70;;;1.60;;
2416;SDS011;1219;48.736;9.330;2023-11-21T10:47:16;1.80;;;1.70;;
2416;SDS011;1219;48.736;9.330;2023-11-21T10:49:44;1.90;;;1.57;;
2416;SDS011;1219;48.736;9.330;2023-11-21T10:52:12;1.40;;;1.30;;
2416;SDS011;1219;48.736;9.330;2023-11-21T10:54:42;1.63;;;1.40;;
2416;SDS011;1219;48.736;9.330;2023-11-21T10:57:08;1.50;;;1.40;;
2416;SDS011;1219;48.736;9.330;2023-11-21T10:59:35;5.93;;;1.50;;
2416;SDS011;1219;48.736;9.330;2023-11-21T11:02:04;2.00;;;1.67;;
2416;SDS011;1219;48.736;9.330;2023-11-21T11:04:33;1.67;;;1.33;;
2416;SDS011;1219;48.736;9.330;2023-11-21T11:07:03;1.60;;;1.40;;
2416;SDS011;1219;48.736;9.330;2023-11-21T11:09:30;1.50;;;1.40;;
2416;SDS011;1219;48.736;9.330;2023-11-21T11:11:58;1.50;;;1.40;;
2416;SDS011;1219;48.736;9.330;2023-11-21T11:14:25;1.67;;;1.40;;
2416;SDS011;1219;48.736;9.330;2023-11-21T11:16:53;1.30;;;1.20;;
2416;SDS011;1219;48.736;9.330;2023-11-21T11:19:20;1.70;;;1.30;;
2416;SDS011;1219;48.736;9.330;2023-11-21T11:22:01;1.50;;;1.40;;
2416;SDS011;1219;48.736;9.330;2023-11-21T11:24:36;1.20;;;1.20;;
2416;SDS011;1219;48.736;9.330;2023-11-21T11:35:03;1.40;;;1.30;;
2416;SDS011;1219;48.736;9.330;2023-11-21T11:37:32;1.50;;;1.40;;
2416;SDS011;1219;48.736;9.330;2023-11-21T11:39:58;2.30;;;1.80;;
2416;SDS011;1219;48.736;9.330;2023-11-21T11:42:25;1.70;;;1.60;;
2416;SDS011;1219;48.736;9.330;2023-11-21T11:44:52;1.80;;;1.70;;
2416;SDS011;1219;48.736;9.330;2023-11-21T11:47:27;1.50;;;1.40;;
2416;SDS011;1219;48.736;9.330;2023-11-21T11:55:05;1.50;;;1.40;;
2416;SDS011;1219;48.736;9.330;2023-11-21T11:57:32;1.50;;;1.40;;
2416;SDS011;1219;48.736;9.330;2023-11-21T12:03:00;1.50;;;1.40;;
2416;SDS011;1219;48.736;9.330;2023-11-21T12:05:30;1.50;;;1.40;;
2416;SDS011;1219;48.736;9.330;2023-11-21T12:08:09;2.50;;;2.30;;
2416;SDS011;1219;48.736;9.330;2023-11-21T12:10:36;2.53;;;2.33;;
2416;SDS011;1219;48.736;9.330;2023-11-21T12:13:05;2.50;;;2.30;;
2416;SDS011;1219;48.736;9.330;2023-11-21T12:15:35;6.57;;;5.90;;
2416;SDS011;1219;48.736;9.330;2023-11-21T12:18:01;4.27;;;3.80;;
2416;SDS011;1219;48.736;9.330;2023-11-21T12:20:28;2.10;;;2.00;;
2416;SDS011;1219;48.736;9.330;2023-11-21T12:22:55;2.00;;;1.90;;
2416;SDS011;1219;48.736;9.330;2023-11-21T12:25:25;1.47;;;1.40;;
2416;SDS011;1219;48.736;9.330;2023-11-21T12:27:54;1.90;;;1.80;;
2416;SDS011;1219;48.736;9.330;2023-11-21T12:30:20;6.00;;;1.60;;
2416;SDS011;1219;48.736;9.330;2023-11-21T12:32:53;2.10;;;2.00;;
2416;SDS011;1219;48.736;9.330;2023-11-21T12:35:21;1.40;;;1.30;;
2416;SDS011;1219;48.736;9.330;2023-11-21T12:37:48;1.70;;;1.60;;
2416;SDS011;1219;48.736;9.330;2023-11-21T12:40:15;1.73;;;1.47;;
2416;SDS011;1219;48.736;9.330;2023-11-21T12:42:42;1.60;;;1.50;;
2416;SDS011;1219;48.736;9.330;2023-11-21T12:45:10;1.50;;;1.40;;
2416;SDS011;1219;48.736;9.330;2023-11-21T12:47:46;1.50;;;1.40;;
2416;SDS011;1219;48.736;9.330;2023-11-21T12:50:12;1.53;;;1.43;;
2416;SDS011;1219;48.736;9.330;2023-11-21T12:52:42;3.00;;;1.50;;
2416;SDS011;1219;48.736;9.330;2023-11-21T12:55:12;1.60;;;1.50;;
2416;SDS011;1219;48.736;9.330;2023-11-21T12:57:41;1.70;;;1.60;;
2416;SDS011;1219;48.736;9.330;2023-11-21T13:00:08;1.63;;;1.53;;
2416;SDS011;1219;48.736;9.330;2023-11-21T13:02:38;1.63;;;1.53;;
2416;SDS011;1219;48.736;9.330;2023-11-21T13:05:07;1.90;;;1.80;;
2416;SDS011;1219;48.736;9.330;2023-11-21T13:07:43;1.90;;;1.80;;
2416;SDS011;1219;48.736;9.330;2023-11-21T13:10:12;2.03;;;1.80;;
2416;SDS011;1219;48.736;9.330;2023-11-21T13:12:42;1.93;;;1.77;;
2416;SDS011;1219;48.736;9.330;2023-11-21T13:15:09;2.00;;;1.90;;
2416;SDS011;1219;48.736;9.330;2023-11-21T13:17:35;1.60;;;1.50;;
2416;SDS011;1219;48.736;9.330;2023-11-21T13:20:01;1.90;;;1.80;;
2416;SDS011;1219;48.736;9.330;2023-11-21T13:22:31;1.70;;;1.60;;
2416;SDS011;1219;48.736;9.330;2023-11-21T13:24:58;1.60;;;1.50;;
2416;SDS011;1219;48.736;9.330;2023-11-21T13:27:24;1.67;;;1.57;;
2416;SDS011;1219;48.736;9.330;2023-11-21T13:29:51;1.63;;;1.53;;
2416;SDS011;1219;48.736;9.330;2023-11-21T13:32:16;2.00;;;1.90;;
2416;SDS011;1219;48.736;9.330;2023-11-21T13:34:45;1.20;;;1.20;;
2416;SDS011;1219;48.736;9.330;2023-11-21T13:37:12;1.50;;;1.40;;
2416;SDS011;1219;48.736;9.330;2023-11-21T13:39:38;1.63;;;1.53;;
2416;SDS011;1219;48.736;9.330;2023-11-21T13:42:09;4.30;;;2.00;;
2416;SDS011;1219;48.736;9.330;2023-11-21T13:44:36;2.33;;;2.13;;
2416;SDS011;1219;48.736;9.330;2023-11-21T13:47:06;1.90;;;1.80;;
2416;SDS011;1219;48.736;9.330;2023-11-21T13:49:32;1.70;;;1.60;;
2416;SDS011;1219;48.736;9.330;2023-11-21T13:52:05;1.80;;;1.70;;
2416;SDS011;1219;48.736;9.330;2023-11-21T13:54:32;1.73;;;1.63;;
2416;SDS011;1219;48.736;9.330;2023-11-21T13:56:58;1.40;;;1.30;;
2416;SDS011;1219;48.736;9.330;2023-11-21T13:59:25;1.53;;;1.43;;
2416;SDS011;1219;48.736;9.330;2023-11-21T14:01:53;1.80;;;1.70;;
2416;SDS011;1219;48.736;9.330;2023-11-21T14:04:37;2.13;;;2.03;;
2416;SDS011;1219;48.736;9.330;2023-11-21T14:07:19;1.77;;;1.67;;
2416;SDS011;1219;48.736;9.330;2023-11-21T14:10:00;1.90;;;1.80;;
2416;SDS011;1219;48.736;9.330;2023-11-21T14:12:26;1.93;;;1.83;;
2416;SDS011;1219;48.736;9.330;2023-11-21T14:14:53;2.17;;;1.77;;
2416;SDS011;1219;48.736;9.330;2023-11-21T14:17:20;1.80;;;1.70;;
2416;SDS011;1219;48.736;9.330;2023-11-21T14:19:47;2.03;;;1.90;;
2416;SDS011;1219;48.736;9.330;2023-11-21T14:22:14;2.40;;;2.20;;
2416;SDS011;1219;48.736;9.330;2023-11-21T14:24:40;2.00;;;1.80;;
2416;SDS011;1219;48.736;9.330;2023-11-21T14:27:10;2.30;;;2.10;;
2416;SDS011;1219;48.736;9.330;2023-11-21T14:29:36;2.50;;;2.30;;
2416;SDS011;1219;48.736;9.330;2023-11-21T14:32:04;1.70;;;1.60;;
2416;SDS011;1219;48.736;9.330;2023-11-21T14:34:30;1.60;;;1.50;;
2416;SDS011;1219;48.736;9.330;2023-11-21T14:36:56;2.17;;;2.03;;
2416;SDS011;1219;48.736;9.330;2023-11-21T14:39:22;1.80;;;1.70;;
2416;SDS011;1219;48.736;9.330;2023-11-21T14:41:51;1.70;;;1.60;;
2416;SDS011;1219;48.736;9.330;2023-11-21T14:44:18;1.70;;;1.60;;
2416;SDS011;1219;48.736;9.330;2023-11-21T14:46:44;1.60;;;1.50;;
2416;SDS011;1219;48.736;9.330;2023-11-21T14:49:11;1.50;;;1.40;;
2416;SDS011;1219;48.736;9.330;2023-11-21T14:51:43;1.60;;;1.50;;
2416;SDS011;1219;48.736;9.330;2023-11-21T14:54:30;1.63;;;1.53;;
2416;SDS011;1219;48.736;9.330;2023-11-21T14:57:08;1.77;;;1.67;;
2416;SDS011;1219;48.736;9.330;2023-11-21T14:59:36;1.50;;;1.40;;
2416;SDS011;1219;48.736;9.330;2023-11-21T15:02:02;1.40;;;1.30;;
2416;SDS011;1219;48.736;9.330;2023-11-21T15:04:42;1.40;;;1.30;;
2416;SDS011;1219;48.736;9.330;2023-11-21T15:07:08;1.50;;;1.40;;
2416;SDS011;1219;48.736;9.330;2023-11-21T15:09:34;1.63;;;1.53;;
2416;SDS011;1219;48.736;9.330;2023-11-21T15:12:05;2.23;;;2.00;;
2416;SDS011;1219;48.736;9.330;2023-11-21T15:17:08;1.77;;;1.67;;
2416;SDS011;1219;48.736;9.330;2023-11-21T15:19:34;1.80;;;1.70;;
2416;SDS011;1219;48.736;9.330;2023-11-21T15:22:00;1.90;;;1.80;;
2416;SDS011;1219;48.736;9.330;2023-11-21T15:24:26;1.60;;;1.50;;
2416;SDS011;1219;48.736;9.330;2023-11-21T15:26:52;2.00;;;1.90;;
2416;SDS011;1219;48.736;9.330;2023-11-21T15:29:19;2.00;;;1.90;;
2416;SDS011;1219;48.736;9.330;2023-11-21T15:31:46;1.90;;;1.80;;
2416;SDS011;1219;48.736;9.330;2023-11-21T15:34:14;1.70;;;1.60;;
2416;SDS011;1219;48.736;9.330;2023-11-21T15:36:40;1.97;;;1.87;;
2416;SDS011;1219;48.736;9.330;2023-11-21T15:39:06;1.80;;;1.70;;